HRT425 CYOW-CYQB
Flight info
| Callsign | HRT425 |
|---|---|
| Flight time | 0h 40m |
| Altitude | 33000 |
| Route | TAKOL Q941 AGLUK PESAC4 |
| Aircraft | C750/M-SBDE3FGHRWXY/S |
Departure
| Time | 2026-04-30 00:45 |
|---|---|
| Airport | Ottawa Macdonald-Cartier International Airport (CYOW) |
Arrival
| Time | 2026-04-30 01:26 |
|---|---|
| Airport | Quebec Jean Lesage International Airport (CYQB) |
| Time | Latitude | Longitude | Altitude | Speed | Heading |
|---|---|---|---|---|---|
| 2026-04-30 00:03 | 45.32394 | -75.65618 | 383 ft | 0 kts | 265° |
| 2026-04-30 00:35 | 45.32397 | -75.65605 | 383 ft | 2 kts | 230° |
| 2026-04-30 00:35 | 45.32411 | -75.65596 | 384 ft | 2 kts | 169° |
| 2026-04-30 00:35 | 45.32419 | -75.65599 | 384 ft | 0 kts | 151° |
| 2026-04-30 00:37 | 45.32413 | -75.65595 | 384 ft | 4 kts | 151° |
| 2026-04-30 00:37 | 45.32370 | -75.65572 | 381 ft | 7 kts | 186° |
| 2026-04-30 00:37 | 45.32340 | -75.65607 | 379 ft | 5 kts | 238° |
| 2026-04-30 00:38 | 45.32309 | -75.65624 | 377 ft | 7 kts | 155° |
| 2026-04-30 00:38 | 45.32249 | -75.65597 | 373 ft | 10 kts | 209° |
| 2026-04-30 00:38 | 45.32217 | -75.65661 | 373 ft | 8 kts | 237° |
| 2026-04-30 00:38 | 45.32185 | -75.65734 | 372 ft | 10 kts | 238° |
| 2026-04-30 00:39 | 45.32147 | -75.65819 | 371 ft | 9 kts | 236° |
| 2026-04-30 00:39 | 45.32113 | -75.65891 | 371 ft | 10 kts | 237° |
| 2026-04-30 00:39 | 45.32070 | -75.65988 | 372 ft | 14 kts | 238° |
| 2026-04-30 00:39 | 45.32011 | -75.66120 | 371 ft | 17 kts | 237° |
| 2026-04-30 00:40 | 45.31975 | -75.66200 | 373 ft | 13 kts | 237° |
| 2026-04-30 00:40 | 45.31933 | -75.66293 | 373 ft | 11 kts | 237° |
| 2026-04-30 00:40 | 45.31888 | -75.66393 | 373 ft | 13 kts | 238° |
| 2026-04-30 00:40 | 45.31838 | -75.66505 | 373 ft | 13 kts | 237° |
| 2026-04-30 00:41 | 45.31798 | -75.66592 | 374 ft | 8 kts | 237° |
| 2026-04-30 00:41 | 45.31746 | -75.66707 | 371 ft | 13 kts | 237° |
| 2026-04-30 00:41 | 45.31715 | -75.66776 | 370 ft | 11 kts | 237° |
| 2026-04-30 00:41 | 45.31673 | -75.66870 | 371 ft | 12 kts | 238° |
| 2026-04-30 00:42 | 45.31634 | -75.66957 | 371 ft | 11 kts | 237° |
| 2026-04-30 00:42 | 45.31593 | -75.67047 | 371 ft | 11 kts | 237° |
| 2026-04-30 00:42 | 45.31543 | -75.67097 | 373 ft | 8 kts | 196° |
| 2026-04-30 00:42 | 45.31490 | -75.67114 | 374 ft | 10 kts | 192° |
| 2026-04-30 00:43 | 45.31446 | -75.67128 | 374 ft | 0 kts | 193° |
| 2026-04-30 00:44 | 45.31439 | -75.67131 | 374 ft | 4 kts | 193° |
| 2026-04-30 00:44 | 45.31382 | -75.67144 | 374 ft | 12 kts | 178° |
| 2026-04-30 00:44 | 45.31343 | -75.67097 | 373 ft | 6 kts | 72° |
| 2026-04-30 00:45 | 45.31375 | -75.67025 | 373 ft | 32 kts | 57° |
| 2026-04-30 00:45 | 45.31712 | -75.66274 | 371 ft | 139 kts | 57° |
| 2026-04-30 00:45 | 45.32274 | -75.64995 | 713 ft | 156 kts | 55° |
| 2026-04-30 00:45 | 45.32864 | -75.63622 | 1378 ft | 167 kts | 56° |
| 2026-04-30 00:46 | 45.33482 | -75.62183 | 2098 ft | 180 kts | 56° |
| 2026-04-30 00:46 | 45.34162 | -75.60559 | 2673 ft | 207 kts | 58° |
| 2026-04-30 00:46 | 45.34940 | -75.58691 | 3279 ft | 233 kts | 59° |
| 2026-04-30 00:46 | 45.35836 | -75.56622 | 3933 ft | 255 kts | 58° |
| 2026-04-30 00:47 | 45.36808 | -75.54430 | 4823 ft | 270 kts | 59° |
| 2026-04-30 00:47 | 45.37922 | -75.52069 | 5011 ft | 306 kts | 52° |
| 2026-04-30 00:47 | 45.39449 | -75.50160 | 5545 ft | 286 kts | 35° |
| 2026-04-30 00:47 | 45.41071 | -75.48610 | 6760 ft | 282 kts | 36° |
| 2026-04-30 00:48 | 45.42617 | -75.46877 | 7682 ft | 290 kts | 42° |
| 2026-04-30 00:48 | 45.44129 | -75.44950 | 8825 ft | 294 kts | 44° |
| 2026-04-30 00:48 | 45.45697 | -75.43023 | 9835 ft | 301 kts | 41° |
| 2026-04-30 00:48 | 45.47348 | -75.41088 | 10469 ft | 317 kts | 41° |
| 2026-04-30 00:49 | 45.49123 | -75.38986 | 10700 ft | 345 kts | 41° |
| 2026-04-30 00:49 | 45.51027 | -75.36686 | 10872 ft | 370 kts | 42° |
| 2026-04-30 00:49 | 45.53000 | -75.34310 | 11673 ft | 372 kts | 41° |
| 2026-04-30 00:49 | 45.54995 | -75.31923 | 12402 ft | 378 kts | 41° |
| 2026-04-30 00:50 | 45.57026 | -75.29486 | 13110 ft | 383 kts | 42° |
| 2026-04-30 00:50 | 45.59074 | -75.27016 | 13804 ft | 388 kts | 42° |
| 2026-04-30 00:50 | 45.61152 | -75.24510 | 14466 ft | 393 kts | 42° |
| 2026-04-30 00:50 | 45.63248 | -75.21982 | 15096 ft | 396 kts | 43° |
| 2026-04-30 00:51 | 45.65109 | -75.19080 | 15589 ft | 398 kts | 59° |
| 2026-04-30 00:51 | 45.66382 | -75.15601 | 16320 ft | 395 kts | 69° |
| 2026-04-30 00:51 | 45.67516 | -75.11994 | 16984 ft | 400 kts | 70° |
| 2026-04-30 00:51 | 45.68636 | -75.08372 | 17630 ft | 405 kts | 70° |
| 2026-04-30 00:52 | 45.69801 | -75.04687 | 18326 ft | 409 kts | 70° |
| 2026-04-30 00:52 | 45.70989 | -75.00958 | 18975 ft | 414 kts | 70° |
| 2026-04-30 00:52 | 45.72177 | -74.97180 | 19635 ft | 418 kts | 70° |
| 2026-04-30 00:52 | 45.73370 | -74.93359 | 20278 ft | 422 kts | 70° |
| 2026-04-30 00:53 | 45.74579 | -74.89498 | 20916 ft | 428 kts | 69° |
| 2026-04-30 00:53 | 45.75806 | -74.85591 | 21606 ft | 432 kts | 69° |
| 2026-04-30 00:53 | 45.77042 | -74.81647 | 22265 ft | 437 kts | 69° |
| 2026-04-30 00:53 | 45.78292 | -74.77637 | 22927 ft | 441 kts | 69° |
| 2026-04-30 00:54 | 45.79547 | -74.73606 | 23546 ft | 445 kts | 69° |
| 2026-04-30 00:54 | 45.80802 | -74.69577 | 24061 ft | 450 kts | 69° |
| 2026-04-30 00:54 | 45.82083 | -74.65456 | 24565 ft | 455 kts | 69° |
| 2026-04-30 00:54 | 45.83376 | -74.61289 | 25075 ft | 460 kts | 69° |
| 2026-04-30 00:55 | 45.84682 | -74.57071 | 25575 ft | 465 kts | 69° |
| 2026-04-30 00:55 | 45.86001 | -74.52804 | 26070 ft | 470 kts | 69° |
| 2026-04-30 00:55 | 45.88675 | -74.44134 | 27047 ft | 479 kts | 69° |
| 2026-04-30 00:56 | 45.90029 | -74.39734 | 27586 ft | 484 kts | 69° |
| 2026-04-30 00:56 | 45.91391 | -74.35297 | 28170 ft | 487 kts | 69° |
| 2026-04-30 00:56 | 45.92763 | -74.30818 | 28693 ft | 492 kts | 69° |
| 2026-04-30 00:56 | 45.94145 | -74.26299 | 29220 ft | 497 kts | 69° |
| 2026-04-30 00:57 | 45.95525 | -74.21783 | 29734 ft | 501 kts | 69° |
| 2026-04-30 00:57 | 45.96932 | -74.17170 | 30196 ft | 505 kts | 69° |
| 2026-04-30 00:57 | 45.98349 | -74.12515 | 30618 ft | 510 kts | 69° |
| 2026-04-30 00:57 | 45.99771 | -74.07830 | 31149 ft | 511 kts | 69° |
| 2026-04-30 00:58 | 46.01191 | -74.03148 | 31783 ft | 511 kts | 69° |
| 2026-04-30 00:58 | 46.02609 | -73.98462 | 32357 ft | 511 kts | 69° |
| 2026-04-30 00:58 | 46.04028 | -73.93762 | 32812 ft | 515 kts | 69° |
| 2026-04-30 00:58 | 46.05468 | -73.88977 | 32809 ft | 527 kts | 69° |
| 2026-04-30 00:59 | 46.06937 | -73.84089 | 32814 ft | 538 kts | 69° |
| 2026-04-30 00:59 | 46.08438 | -73.79087 | 32822 ft | 549 kts | 69° |
| 2026-04-30 00:59 | 46.09969 | -73.73975 | 32831 ft | 560 kts | 69° |
| 2026-04-30 00:59 | 46.11520 | -73.68786 | 32828 ft | 567 kts | 69° |
| 2026-04-30 01:00 | 46.14654 | -73.58268 | 32831 ft | 573 kts | 69° |
| 2026-04-30 01:00 | 46.17781 | -73.47730 | 32828 ft | 574 kts | 69° |
| 2026-04-30 01:01 | 46.20916 | -73.37111 | 32757 ft | 567 kts | 68° |
| 2026-04-30 01:01 | 46.22421 | -73.31986 | 32002 ft | 540 kts | 69° |
| 2026-04-30 01:01 | 46.23840 | -73.27068 | 31308 ft | 521 kts | 69° |
| 2026-04-30 01:02 | 46.25219 | -73.22260 | 30630 ft | 517 kts | 69° |
| 2026-04-30 01:02 | 46.26602 | -73.17483 | 29954 ft | 511 kts | 69° |
| 2026-04-30 01:02 | 46.27971 | -73.12775 | 29240 ft | 503 kts | 69° |
| 2026-04-30 01:02 | 46.29308 | -73.08130 | 28594 ft | 497 kts | 70° |
| 2026-04-30 01:03 | 46.30621 | -73.03538 | 27937 ft | 491 kts | 70° |
| 2026-04-30 01:03 | 46.31921 | -72.99004 | 27296 ft | 485 kts | 69° |
| 2026-04-30 01:03 | 46.33211 | -72.94511 | 26657 ft | 481 kts | 69° |
| 2026-04-30 01:03 | 46.34478 | -72.90082 | 26028 ft | 471 kts | 69° |
| 2026-04-30 01:04 | 46.35703 | -72.85782 | 25419 ft | 465 kts | 69° |
| 2026-04-30 01:04 | 46.36951 | -72.81420 | 24799 ft | 460 kts | 69° |
| 2026-04-30 01:04 | 46.38187 | -72.77177 | 24198 ft | 454 kts | 69° |
| 2026-04-30 01:04 | 46.39393 | -72.73045 | 23611 ft | 449 kts | 69° |
| 2026-04-30 01:05 | 46.40589 | -72.68886 | 22971 ft | 443 kts | 69° |
| 2026-04-30 01:05 | 46.41764 | -72.64777 | 22395 ft | 440 kts | 69° |
| 2026-04-30 01:05 | 46.42938 | -72.60700 | 21820 ft | 436 kts | 69° |
| 2026-04-30 01:05 | 46.44103 | -72.56655 | 21246 ft | 432 kts | 69° |
| 2026-04-30 01:06 | 46.45254 | -72.52634 | 20679 ft | 429 kts | 70° |
| 2026-04-30 01:06 | 46.46394 | -72.48641 | 20115 ft | 426 kts | 70° |
| 2026-04-30 01:06 | 46.47524 | -72.44686 | 19556 ft | 423 kts | 70° |
| 2026-04-30 01:06 | 46.48647 | -72.40751 | 18993 ft | 419 kts | 70° |
| 2026-04-30 01:07 | 46.49741 | -72.36903 | 18454 ft | 416 kts | 70° |
| 2026-04-30 01:07 | 46.50841 | -72.33032 | 17889 ft | 413 kts | 70° |
| 2026-04-30 01:07 | 46.51930 | -72.29193 | 17453 ft | 412 kts | 70° |
| 2026-04-30 01:07 | 46.53015 | -72.25364 | 16932 ft | 408 kts | 70° |
| 2026-04-30 01:08 | 46.54090 | -72.21568 | 16393 ft | 404 kts | 70° |
| 2026-04-30 01:08 | 46.55154 | -72.17799 | 15862 ft | 401 kts | 70° |
| 2026-04-30 01:08 | 46.56206 | -72.14066 | 15344 ft | 398 kts | 70° |
| 2026-04-30 01:08 | 46.57251 | -72.10348 | 14821 ft | 395 kts | 70° |
| 2026-04-30 01:09 | 46.58286 | -72.06667 | 14301 ft | 392 kts | 70° |
| 2026-04-30 01:09 | 46.59314 | -72.03000 | 13790 ft | 391 kts | 70° |
| 2026-04-30 01:09 | 46.60390 | -71.99384 | 13229 ft | 387 kts | 66° |
| 2026-04-30 01:09 | 46.61585 | -71.95898 | 12738 ft | 382 kts | 66° |
| 2026-04-30 01:10 | 46.62734 | -71.92439 | 12234 ft | 378 kts | 66° |
| 2026-04-30 01:10 | 46.63865 | -71.89015 | 11729 ft | 372 kts | 66° |
| 2026-04-30 01:10 | 46.64979 | -71.85696 | 11250 ft | 364 kts | 66° |
| 2026-04-30 01:10 | 46.66044 | -71.82534 | 10793 ft | 335 kts | 66° |
| 2026-04-30 01:11 | 46.67036 | -71.79553 | 10356 ft | 317 kts | 66° |
| 2026-04-30 01:11 | 46.67976 | -71.76723 | 9953 ft | 305 kts | 66° |
| 2026-04-30 01:11 | 46.68888 | -71.73982 | 9541 ft | 298 kts | 66° |
| 2026-04-30 01:11 | 46.69788 | -71.71281 | 9146 ft | 294 kts | 66° |
| 2026-04-30 01:12 | 46.70679 | -71.68601 | 8762 ft | 293 kts | 66° |
| 2026-04-30 01:12 | 46.71565 | -71.65929 | 8377 ft | 292 kts | 66° |
| 2026-04-30 01:12 | 46.72473 | -71.63291 | 7984 ft | 291 kts | 62° |
| 2026-04-30 01:12 | 46.73782 | -71.61084 | 7597 ft | 283 kts | 46° |
| 2026-04-30 01:13 | 46.75182 | -71.59155 | 7253 ft | 271 kts | 45° |
| 2026-04-30 01:13 | 46.76516 | -71.57272 | 6901 ft | 263 kts | 47° |
| 2026-04-30 01:13 | 46.77797 | -71.55417 | 6559 ft | 256 kts | 47° |
| 2026-04-30 01:13 | 46.79048 | -71.53614 | 6222 ft | 250 kts | 47° |
| 2026-04-30 01:14 | 46.80276 | -71.51855 | 5883 ft | 245 kts | 47° |
| 2026-04-30 01:14 | 46.81484 | -71.50124 | 5557 ft | 242 kts | 48° |
| 2026-04-30 01:14 | 46.82676 | -71.48409 | 5240 ft | 239 kts | 48° |
| 2026-04-30 01:14 | 46.83838 | -71.46740 | 4995 ft | 234 kts | 48° |
| 2026-04-30 01:15 | 46.84995 | -71.45075 | 4991 ft | 235 kts | 48° |
| 2026-04-30 01:15 | 46.86168 | -71.43383 | 4811 ft | 236 kts | 48° |
| 2026-04-30 01:15 | 46.87335 | -71.41703 | 4560 ft | 235 kts | 48° |
| 2026-04-30 01:15 | 46.88495 | -71.40032 | 4296 ft | 233 kts | 48° |
| 2026-04-30 01:16 | 46.89653 | -71.38399 | 4037 ft | 232 kts | 45° |
| 2026-04-30 01:16 | 46.90914 | -71.36954 | 3993 ft | 228 kts | 43° |
| 2026-04-30 01:16 | 46.92139 | -71.35471 | 4001 ft | 229 kts | 44° |
| 2026-04-30 01:16 | 46.93371 | -71.33988 | 4006 ft | 229 kts | 43° |
| 2026-04-30 01:17 | 46.94610 | -71.32525 | 4009 ft | 230 kts | 43° |
| 2026-04-30 01:17 | 46.95754 | -71.30921 | 4004 ft | 227 kts | 50° |
| 2026-04-30 01:17 | 46.96883 | -71.29291 | 4009 ft | 228 kts | 48° |
| 2026-04-30 01:17 | 46.98024 | -71.27674 | 4019 ft | 229 kts | 48° |
| 2026-04-30 01:18 | 46.99156 | -71.26036 | 4019 ft | 228 kts | 49° |
| 2026-04-30 01:18 | 47.00266 | -71.24417 | 4040 ft | 229 kts | 49° |
| 2026-04-30 01:18 | 47.01106 | -71.22497 | 3961 ft | 216 kts | 80° |
| 2026-04-30 01:18 | 47.00931 | -71.20323 | 3991 ft | 219 kts | 112° |
| 2026-04-30 01:19 | 47.00123 | -71.18488 | 4031 ft | 213 kts | 137° |
| 2026-04-30 01:19 | 46.98852 | -71.17393 | 4027 ft | 213 kts | 163° |
| 2026-04-30 01:19 | 46.97465 | -71.17227 | 4041 ft | 200 kts | 183° |
| 2026-04-30 01:19 | 46.96056 | -71.17388 | 4037 ft | 199 kts | 184° |
| 2026-04-30 01:20 | 46.94743 | -71.17532 | 4019 ft | 186 kts | 189° |
| 2026-04-30 01:20 | 46.93621 | -71.18414 | 4014 ft | 186 kts | 219° |
| 2026-04-30 01:20 | 46.92728 | -71.19703 | 3833 ft | 173 kts | 223° |
| 2026-04-30 01:20 | 46.91871 | -71.20951 | 3597 ft | 173 kts | 222° |
| 2026-04-30 01:21 | 46.91022 | -71.22178 | 3354 ft | 171 kts | 221° |
| 2026-04-30 01:21 | 46.90182 | -71.23393 | 3127 ft | 168 kts | 221° |
| 2026-04-30 01:21 | 46.89353 | -71.24593 | 2889 ft | 170 kts | 221° |
| 2026-04-30 01:21 | 46.88520 | -71.25798 | 2641 ft | 166 kts | 220° |
| 2026-04-30 01:22 | 46.87730 | -71.26949 | 2419 ft | 156 kts | 219° |
| 2026-04-30 01:22 | 46.86943 | -71.28079 | 2206 ft | 160 kts | 219° |
| 2026-04-30 01:22 | 46.86151 | -71.29221 | 1988 ft | 165 kts | 219° |
| 2026-04-30 01:22 | 46.85386 | -71.30337 | 1754 ft | 141 kts | 219° |
| 2026-04-30 01:23 | 46.84748 | -71.31265 | 1558 ft | 123 kts | 216° |
| 2026-04-30 01:23 | 46.84152 | -71.32122 | 1392 ft | 119 kts | 217° |
| 2026-04-30 01:23 | 46.83572 | -71.32957 | 1234 ft | 114 kts | 218° |
| 2026-04-30 01:23 | 46.82991 | -71.33789 | 1085 ft | 120 kts | 219° |
| 2026-04-30 01:24 | 46.82389 | -71.34656 | 920 ft | 122 kts | 222° |
| 2026-04-30 01:24 | 46.81777 | -71.35536 | 767 ft | 126 kts | 221° |
| 2026-04-30 01:24 | 46.81141 | -71.36448 | 606 ft | 129 kts | 223° |
| 2026-04-30 01:24 | 46.80491 | -71.37383 | 436 ft | 132 kts | 224° |
| 2026-04-30 01:25 | 46.79839 | -71.38335 | 239 ft | 129 kts | 224° |
| 2026-04-30 01:25 | 46.79330 | -71.39064 | 240 ft | 75 kts | 224° |
| 2026-04-30 01:25 | 46.78979 | -71.39569 | 243 ft | 66 kts | 224° |
| 2026-04-30 01:25 | 46.78675 | -71.40005 | 243 ft | 58 kts | 224° |
| 2026-04-30 01:26 | 46.78508 | -71.40145 | 243 ft | 13 kts | 101° |
| 2026-04-30 01:26 | 46.78486 | -71.40033 | 243 ft | 11 kts | 94° |
| 2026-04-30 01:26 | 46.78489 | -71.39931 | 242 ft | 10 kts | 88° |
| 2026-04-30 01:26 | 46.78542 | -71.39787 | 242 ft | 22 kts | 44° |
| 2026-04-30 01:27 | 46.78647 | -71.39634 | 241 ft | 21 kts | 45° |
| 2026-04-30 01:27 | 46.78745 | -71.39493 | 241 ft | 15 kts | 44° |
| 2026-04-30 01:27 | 46.78790 | -71.39428 | 242 ft | 11 kts | 43° |
| 2026-04-30 01:27 | 46.78883 | -71.39337 | 241 ft | 20 kts | 35° |
| 2026-04-30 01:28 | 46.79021 | -71.39159 | 240 ft | 20 kts | 45° |
| 2026-04-30 01:28 | 46.79087 | -71.39065 | 240 ft | 20 kts | 44° |
| 2026-04-30 01:28 | 46.79186 | -71.38921 | 239 ft | 17 kts | 49° |
| 2026-04-30 01:28 | 46.79153 | -71.38803 | 239 ft | 14 kts | 149° |
| 2026-04-30 01:29 | 46.79061 | -71.38727 | 239 ft | 17 kts | 150° |
| 2026-04-30 01:29 | 46.78958 | -71.38643 | 238 ft | 11 kts | 151° |
| 2026-04-30 01:29 | 46.78941 | -71.38560 | 238 ft | 10 kts | 54° |
| 2026-04-30 01:29 | 46.78947 | -71.38470 | 238 ft | 9 kts | 95° |
| 2026-04-30 01:30 | 46.78948 | -71.38407 | 237 ft | 1 kts | 23° |
| 2026-04-30 01:30 | 46.78977 | -71.38417 | 238 ft | 6 kts | 352° |
| 2026-04-30 01:30 | 46.78999 | -71.38416 | 238 ft | 0 kts | 6° |
| 2026-04-30 01:30 | 46.79001 | -71.38415 | 238 ft | 0 kts | 6° |